sensor_id;sensor_type;location;lat;lon;timestamp;temperature;humidity
6355;DHT22;3210;48.708;9.030;2024-02-23T08:56:24;4.30;92.30
6355;DHT22;3210;48.708;9.030;2024-02-23T09:22:46;4.30;33.60
6355;DHT22;3210;48.708;9.030;2024-02-23T09:25:39;4.30;87.10
6355;DHT22;3210;48.708;9.030;2024-02-23T09:28:38;4.30;52.10
6355;DHT22;3210;48.708;9.030;2024-02-23T09:31:34;4.30;85.60
6355;DHT22;3210;48.708;9.030;2024-02-23T09:35:24;4.50;64.10
6355;DHT22;3210;48.708;9.030;2024-02-23T09:50:32;5.00;11.50
6355;DHT22;3210;48.708;9.030;2024-02-23T09:53:04;5.00;1.00
6355;DHT22;3210;48.708;9.030;2024-02-23T09:55:45;5.00;1.00
6355;DHT22;3210;48.708;9.030;2024-02-23T09:58:43;4.90;1.00
6355;DHT22;3210;48.708;9.030;2024-02-23T10:01:41;4.80;1.00
6355;DHT22;3210;48.708;9.030;2024-02-23T10:04:21;5.20;1.00
6355;DHT22;3210;48.708;9.030;2024-02-23T10:07:22;5.20;1.00
6355;DHT22;3210;48.708;9.030;2024-02-23T10:10:33;5.30;1.00
6355;DHT22;3210;48.708;9.030;2024-02-23T10:13:09;5.40;1.00
6355;DHT22;3210;48.708;9.030;2024-02-23T10:19:08;6.00;1.00
6355;DHT22;3210;48.708;9.030;2024-02-23T10:41:29;6.20;1.00
6355;DHT22;3210;48.708;9.030;2024-02-23T10:44:07;6.30;1.00
6355;DHT22;3210;48.708;9.030;2024-02-23T10:49:23;6.40;1.00
6355;DHT22;3210;48.708;9.030;2024-02-23T10:51:54;6.60;1.00
6355;DHT22;3210;48.708;9.030;2024-02-23T10:57:32;6.90;1.00
6355;DHT22;3210;48.708;9.030;2024-02-23T11:00:11;6.90;1.00
6355;DHT22;3210;48.708;9.030;2024-02-23T11:03:02;6.90;1.00
6355;DHT22;3210;48.708;9.030;2024-02-23T11:05:34;6.90;1.00
6355;DHT22;3210;48.708;9.030;2024-02-23T11:08:14;6.80;1.00
6355;DHT22;3210;48.708;9.030;2024-02-23T11:13:39;7.10;1.00
6355;DHT22;3210;48.708;9.030;2024-02-23T11:18:44;7.30;1.00
6355;DHT22;3210;48.708;9.030;2024-02-23T11:21:10;7.40;1.00
6355;DHT22;3210;48.708;9.030;2024-02-23T11:23:41;7.40;1.00
6355;DHT22;3210;48.708;9.030;2024-02-23T11:26:10;7.30;1.00
6355;DHT22;3210;48.708;9.030;2024-02-23T11:28:56;7.20;1.00
6355;DHT22;3210;48.708;9.030;2024-02-23T11:31:55;7.10;1.00
6355;DHT22;3210;48.708;9.030;2024-02-23T11:34:33;7.10;1.00
6355;DHT22;3210;48.708;9.030;2024-02-23T11:37:09;7.00;1.00
6355;DHT22;3210;48.708;9.030;2024-02-23T11:45:05;7.40;1.00
6355;DHT22;3210;48.708;9.030;2024-02-23T11:47:55;7.50;1.00
6355;DHT22;3210;48.708;9.030;2024-02-23T11:50:27;7.50;1.00
6355;DHT22;3210;48.708;9.030;2024-02-23T11:53:07;7.30;1.00
6355;DHT22;3210;48.708;9.030;2024-02-23T11:55:56;7.20;1.00
6355;DHT22;3210;48.708;9.030;2024-02-23T11:58:55;7.40;1.00
6355;DHT22;3210;48.708;9.030;2024-02-23T12:07:56;7.90;1.00
6355;DHT22;3210;48.708;9.030;2024-02-23T12:10:37;8.20;1.00
6355;DHT22;3210;48.708;9.030;2024-02-23T12:13:31;8.10;1.00
6355;DHT22;3210;48.708;9.030;2024-02-23T12:16:00;8.10;1.00
6355;DHT22;3210;48.708;9.030;2024-02-23T12:18:35;8.20;1.00
6355;DHT22;3210;48.708;9.030;2024-02-23T12:23:54;7.90;1.00
6355;DHT22;3210;48.708;9.030;2024-02-23T12:26:23;7.80;1.00
6355;DHT22;3210;48.708;9.030;2024-02-23T12:28:51;7.50;1.00
6355;DHT22;3210;48.708;9.030;2024-02-23T12:38:29;7.40;1.00
6355;DHT22;3210;48.708;9.030;2024-02-23T12:52:52;7.20;1.00
6355;DHT22;3210;48.708;9.030;2024-02-23T12:55:24;7.10;1.00
6355;DHT22;3210;48.708;9.030;2024-02-23T12:57:54;7.30;1.00
6355;DHT22;3210;48.708;9.030;2024-02-23T13:00:21;7.30;1.00
6355;DHT22;3210;48.708;9.030;2024-02-23T13:08:29;7.30;1.00
6355;DHT22;3210;48.708;9.030;2024-02-23T13:35:28;7.90;1.00
6355;DHT22;3210;48.708;9.030;2024-02-23T13:38:12;7.90;1.00
6355;DHT22;3210;48.708;9.030;2024-02-23T13:41:03;7.90;1.00
6355;DHT22;3210;48.708;9.030;2024-02-23T13:44:13;7.50;1.00
6355;DHT22;3210;48.708;9.030;2024-02-23T13:46:55;7.50;1.00
6355;DHT22;3210;48.708;9.030;2024-02-23T13:49:37;7.40;1.00
6355;DHT22;3210;48.708;9.030;2024-02-23T14:11:21;7.50;1.00
6355;DHT22;3210;48.708;9.030;2024-02-23T14:13:49;7.50;1.00
6355;DHT22;3210;48.708;9.030;2024-02-23T14:16:42;7.70;1.00
6355;DHT22;3210;48.708;9.030;2024-02-23T14:19:27;7.80;1.00
6355;DHT22;3210;48.708;9.030;2024-02-23T14:23:25;7.80;1.00
6355;DHT22;3210;48.708;9.030;2024-02-23T14:25:47;8.00;1.00
6355;DHT22;3210;48.708;9.030;2024-02-23T14:44:41;7.80;1.00
6355;DHT22;3210;48.708;9.030;2024-02-23T14:52:40;7.40;1.00
6355;DHT22;3210;48.708;9.030;2024-02-23T14:56:10;7.20;1.00
6355;DHT22;3210;48.708;9.030;2024-02-23T14:59:15;7.30;1.00
6355;DHT22;3210;48.708;9.030;2024-02-23T15:01:59;7.20;1.00
6355;DHT22;3210;48.708;9.030;2024-02-23T15:06:23;7.30;1.00
6355;DHT22;3210;48.708;9.030;2024-02-23T15:38:25;6.90;1.00
6355;DHT22;3210;48.708;9.030;2024-02-23T15:44:42;7.00;1.00
6355;DHT22;3210;48.708;9.030;2024-02-23T15:48:14;7.10;1.00
6355;DHT22;3210;48.708;9.030;2024-02-23T15:57:28;7.20;1.00
6355;DHT22;3210;48.708;9.030;2024-02-23T16:03:51;6.90;1.00
6355;DHT22;3210;48.708;9.030;2024-02-23T16:10:10;6.40;1.00
6355;DHT22;3210;48.708;9.030;2024-02-23T16:41:30;6.10;99.90
6355;DHT22;3210;48.708;9.030;2024-02-23T16:48:03;5.80;99.90
6355;DHT22;3210;48.708;9.030;2024-02-23T16:52:58;5.70;99.90
6355;DHT22;3210;48.708;9.030;2024-02-23T16:55:08;5.70;99.90
6355;DHT22;3210;48.708;9.030;2024-02-23T16:58:52;5.50;99.90
6355;DHT22;3210;48.708;9.030;2024-02-23T17:07:48;5.20;99.90
6355;DHT22;3210;48.708;9.030;2024-02-23T17:11:01;5.20;99.90
6355;DHT22;3210;48.708;9.030;2024-02-23T17:23:46;5.30;99.90
6355;DHT22;3210;48.708;9.030;2024-02-23T17:31:21;5.30;99.90
6355;DHT22;3210;48.708;9.030;2024-02-23T17:33:31;5.20;99.90
6355;DHT22;3210;48.708;9.030;2024-02-23T17:36:00;5.20;99.90
6355;DHT22;3210;48.708;9.030;2024-02-23T17:39:23;5.30;99.90
6355;DHT22;3210;48.708;9.030;2024-02-23T17:42:29;5.30;80.20
6355;DHT22;3210;48.708;9.030;2024-02-23T17:45:15;5.40;77.30
6355;DHT22;3210;48.708;9.030;2024-02-23T17:48:34;5.40;38.80
6355;DHT22;3210;48.708;9.030;2024-02-23T17:51:17;5.40;40.40
6355;DHT22;3210;48.708;9.030;2024-02-23T18:18:23;4.90;7.40
6355;DHT22;3210;48.708;9.030;2024-02-23T18:44:17;4.10;99.90
6355;DHT22;3210;48.708;9.030;2024-02-23T18:47:42;4.20;99.90
6355;DHT22;3210;48.708;9.030;2024-02-23T18:54:13;4.20;99.90
6355;DHT22;3210;48.708;9.030;2024-02-23T18:56:59;4.30;99.90
6355;DHT22;3210;48.708;9.030;2024-02-23T20:10:01;2.90;99.90
6355;DHT22;3210;48.708;9.030;2024-02-23T21:48:17;0.40;1.00
6355;DHT22;3210;48.708;9.030;2024-02-23T21:51:14;0.30;1.00
6355;DHT22;3210;48.708;9.030;2024-02-23T21:54:00;0.30;1.00
6355;DHT22;3210;48.708;9.030;2024-02-23T21:58:20;0.30;1.00
6355;DHT22;3210;48.708;9.030;2024-02-23T21:59:55;0.20;1.00
6355;DHT22;3210;48.708;9.030;2024-02-23T22:02:39;0.30;1.00
6355;DHT22;3210;48.708;9.030;2024-02-23T22:05:43;0.30;1.00
6355;DHT22;3210;48.708;9.030;2024-02-23T22:08:35;0.30;1.00
6355;DHT22;3210;48.708;9.030;2024-02-23T22:11:54;0.20;1.00
6355;DHT22;3210;48.708;9.030;2024-02-23T22:14:34;0.10;1.00
6355;DHT22;3210;48.708;9.030;2024-02-23T22:17:03;0.20;1.00
6355;DHT22;3210;48.708;9.030;2024-02-23T22:19:32;0.10;1.00
6355;DHT22;3210;48.708;9.030;2024-02-23T22:21:59;0.10;1.00
6355;DHT22;3210;48.708;9.030;2024-02-23T22:24:26;0.20;9.70
6355;DHT22;3210;48.708;9.030;2024-02-23T22:26:53;0.20;94.00
6355;DHT22;3210;48.708;9.030;2024-02-23T22:29:21;0.10;1.00
6355;DHT22;3210;48.708;9.030;2024-02-23T22:31:48;0.10;1.00
6355;DHT22;3210;48.708;9.030;2024-02-23T22:34:15;0.20;1.00
6355;DHT22;3210;48.708;9.030;2024-02-23T22:36:45;0.20;1.00
6355;DHT22;3210;48.708;9.030;2024-02-23T22:39:11;0.20;1.00
6355;DHT22;3210;48.708;9.030;2024-02-23T22:41:40;0.20;1.00
6355;DHT22;3210;48.708;9.030;2024-02-23T22:44:07;0.10;1.00
6355;DHT22;3210;48.708;9.030;2024-02-23T22:46:34;0.20;1.00
6355;DHT22;3210;48.708;9.030;2024-02-23T22:49:01;0.20;1.00
6355;DHT22;3210;48.708;9.030;2024-02-23T22:51:28;0.20;1.00
6355;DHT22;3210;48.708;9.030;2024-02-23T22:53:58;0.30;1.00
6355;DHT22;3210;48.708;9.030;2024-02-23T22:56:24;0.30;1.00
6355;DHT22;3210;48.708;9.030;2024-02-23T22:58:51;0.40;99.90
6355;DHT22;3210;48.708;9.030;2024-02-23T23:01:18;0.20;99.90
6355;DHT22;3210;48.708;9.030;2024-02-23T23:03:45;0.30;1.00
6355;DHT22;3210;48.708;9.030;2024-02-23T23:06:12;0.40;1.00
6355;DHT22;3210;48.708;9.030;2024-02-23T23:08:39;0.50;1.00
6355;DHT22;3210;48.708;9.030;2024-02-23T23:11:08;0.60;1.00
6355;DHT22;3210;48.708;9.030;2024-02-23T23:13:36;0.60;99.90
6355;DHT22;3210;48.708;9.030;2024-02-23T23:16:03;0.60;99.90
6355;DHT22;3210;48.708;9.030;2024-02-23T23:18:30;0.60;99.90
6355;DHT22;3210;48.708;9.030;2024-02-23T23:20:58;0.50;99.90
6355;DHT22;3210;48.708;9.030;2024-02-23T23:23:28;0.40;99.90
6355;DHT22;3210;48.708;9.030;2024-02-23T23:25:55;0.40;1.00
6355;DHT22;3210;48.708;9.030;2024-02-23T23:28:26;0.50;1.00
6355;DHT22;3210;48.708;9.030;2024-02-23T23:30:53;0.50;99.90
6355;DHT22;3210;48.708;9.030;2024-02-23T23:33:20;0.50;99.90
6355;DHT22;3210;48.708;9.030;2024-02-23T23:35:47;0.60;99.90
6355;DHT22;3210;48.708;9.030;2024-02-23T23:38:14;0.40;99.90
6355;DHT22;3210;48.708;9.030;2024-02-23T23:40:41;0.40;99.90
6355;DHT22;3210;48.708;9.030;2024-02-23T23:43:08;0.40;1.00
6355;DHT22;3210;48.708;9.030;2024-02-23T23:45:37;0.40;99.90
6355;DHT22;3210;48.708;9.030;2024-02-23T23:48:05;0.50;99.90
6355;DHT22;3210;48.708;9.030;2024-02-23T23:50:33;0.40;99.90
6355;DHT22;3210;48.708;9.030;2024-02-23T23:53:02;0.30;99.90
6355;DHT22;3210;48.708;9.030;2024-02-23T23:55:29;0.30;1.00
6355;DHT22;3210;48.708;9.030;2024-02-23T23:57:56;0.40;1.00
